sensor_id;sensor_type;location;lat;lon;timestamp;temperature;humidity
53268;DHT22;39156;51.176;6.738;2023-01-01T00:01:24;15.80;53.40
53268;DHT22;39156;51.176;6.738;2023-01-01T00:03:52;15.80;53.60
53268;DHT22;39156;51.176;6.738;2023-01-01T00:06:20;15.80;54.00
53268;DHT22;39156;51.176;6.738;2023-01-01T00:08:46;15.90;54.20
53268;DHT22;39156;51.176;6.738;2023-01-01T00:11:32;15.70;54.20
53268;DHT22;39156;51.176;6.738;2023-01-01T00:13:57;15.70;54.20
53268;DHT22;39156;51.176;6.738;2023-01-01T00:16:23;15.80;54.20
53268;DHT22;39156;51.176;6.738;2023-01-01T00:18:49;15.60;54.10
53268;DHT22;39156;51.176;6.738;2023-01-01T00:21:15;15.60;54.30
53268;DHT22;39156;51.176;6.738;2023-01-01T00:23:42;15.60;54.30
53268;DHT22;39156;51.176;6.738;2023-01-01T00:26:13;15.50;54.30
53268;DHT22;39156;51.176;6.738;2023-01-01T00:28:41;15.50;54.20
53268;DHT22;39156;51.176;6.738;2023-01-01T00:31:12;15.40;54.20
53268;DHT22;39156;51.176;6.738;2023-01-01T00:33:39;15.40;53.80
53268;DHT22;39156;51.176;6.738;2023-01-01T00:36:09;15.30;54.10
53268;DHT22;39156;51.176;6.738;2023-01-01T00:38:35;15.30;54.00
53268;DHT22;39156;51.176;6.738;2023-01-01T00:41:02;15.50;54.30
53268;DHT22;39156;51.176;6.738;2023-01-01T00:43:28;15.10;54.10
53268;DHT22;39156;51.176;6.738;2023-01-01T00:45:53;15.10;54.00
53268;DHT22;39156;51.176;6.738;2023-01-01T00:48:19;15.20;54.10
53268;DHT22;39156;51.176;6.738;2023-01-01T00:50:46;15.10;54.00
53268;DHT22;39156;51.176;6.738;2023-01-01T00:53:12;15.00;54.00
53268;DHT22;39156;51.176;6.738;2023-01-01T00:55:39;15.10;53.70
53268;DHT22;39156;51.176;6.738;2023-01-01T00:58:05;15.00;53.80
53268;DHT22;39156;51.176;6.738;2023-01-01T01:00:31;15.00;53.70
53268;DHT22;39156;51.176;6.738;2023-01-01T01:02:57;14.90;53.60
53268;DHT22;39156;51.176;6.738;2023-01-01T01:05:23;15.00;53.70
53268;DHT22;39156;51.176;6.738;2023-01-01T01:07:48;14.90;53.40
53268;DHT22;39156;51.176;6.738;2023-01-01T01:10:14;14.80;53.30
53268;DHT22;39156;51.176;6.738;2023-01-01T01:12:40;14.80;54.00
53268;DHT22;39156;51.176;6.738;2023-01-01T01:15:07;14.80;53.30
53268;DHT22;39156;51.176;6.738;2023-01-01T01:17:34;14.80;53.20
53268;DHT22;39156;51.176;6.738;2023-01-01T01:20:01;14.80;53.00
53268;DHT22;39156;51.176;6.738;2023-01-01T01:22:26;14.70;52.90
53268;DHT22;39156;51.176;6.738;2023-01-01T01:24:52;14.80;52.80
53268;DHT22;39156;51.176;6.738;2023-01-01T01:27:18;14.80;52.70
53268;DHT22;39156;51.176;6.738;2023-01-01T01:29:43;14.80;52.50
53268;DHT22;39156;51.176;6.738;2023-01-01T01:32:11;14.80;52.40
53268;DHT22;39156;51.176;6.738;2023-01-01T01:34:37;15.00;52.50
53268;DHT22;39156;51.176;6.738;2023-01-01T01:37:03;14.70;52.20
53268;DHT22;39156;51.176;6.738;2023-01-01T01:39:28;14.70;52.30
53268;DHT22;39156;51.176;6.738;2023-01-01T01:41:54;14.70;52.10
53268;DHT22;39156;51.176;6.738;2023-01-01T01:53:15;14.60;51.60
53268;DHT22;39156;51.176;6.738;2023-01-01T01:55:49;14.60;51.30
53268;DHT22;39156;51.176;6.738;2023-01-01T01:58:18;14.60;51.60
53268;DHT22;39156;51.176;6.738;2023-01-01T02:00:44;14.60;51.50
53268;DHT22;39156;51.176;6.738;2023-01-01T02:03:15;14.60;51.60
53268;DHT22;39156;51.176;6.738;2023-01-01T02:05:45;14.60;51.30
53268;DHT22;39156;51.176;6.738;2023-01-01T02:08:11;14.50;51.40
53268;DHT22;39156;51.176;6.738;2023-01-01T02:10:39;14.60;51.40
53268;DHT22;39156;51.176;6.738;2023-01-01T02:13:05;14.60;51.30
53268;DHT22;39156;51.176;6.738;2023-01-01T02:15:38;14.60;51.30
53268;DHT22;39156;51.176;6.738;2023-01-01T02:18:35;14.60;51.10
53268;DHT22;39156;51.176;6.738;2023-01-01T02:27:36;14.60;51.20
53268;DHT22;39156;51.176;6.738;2023-01-01T02:30:09;14.60;51.00
53268;DHT22;39156;51.176;6.738;2023-01-01T02:35:27;14.50;51.00
53268;DHT22;39156;51.176;6.738;2023-01-01T02:38:05;14.50;51.30
53268;DHT22;39156;51.176;6.738;2023-01-01T02:40:41;14.50;51.30
53268;DHT22;39156;51.176;6.738;2023-01-01T02:43:09;14.50;51.30
53268;DHT22;39156;51.176;6.738;2023-01-01T02:45:35;14.50;51.40
53268;DHT22;39156;51.176;6.738;2023-01-01T02:48:40;14.40;51.50
53268;DHT22;39156;51.176;6.738;2023-01-01T02:54:11;14.50;51.50
53268;DHT22;39156;51.176;6.738;2023-01-01T03:05:49;14.40;51.30
53268;DHT22;39156;51.176;6.738;2023-01-01T03:14:57;14.30;51.70
53268;DHT22;39156;51.176;6.738;2023-01-01T03:17:35;14.30;51.80
53268;DHT22;39156;51.176;6.738;2023-01-01T03:20:09;14.30;51.70
53268;DHT22;39156;51.176;6.738;2023-01-01T03:22:38;14.30;51.80
53268;DHT22;39156;51.176;6.738;2023-01-01T03:25:12;14.30;52.00
53268;DHT22;39156;51.176;6.738;2023-01-01T03:27:54;14.50;52.10
53268;DHT22;39156;51.176;6.738;2023-01-01T03:30:24;14.20;52.10
53268;DHT22;39156;51.176;6.738;2023-01-01T03:32:56;14.30;52.30
53268;DHT22;39156;51.176;6.738;2023-01-01T03:35:55;14.20;52.30
53268;DHT22;39156;51.176;6.738;2023-01-01T03:38:59;14.20;52.90
53268;DHT22;39156;51.176;6.738;2023-01-01T03:44:17;14.20;52.50
53268;DHT22;39156;51.176;6.738;2023-01-01T03:46:49;14.20;52.70
53268;DHT22;39156;51.176;6.738;2023-01-01T03:49:15;14.20;52.80
53268;DHT22;39156;51.176;6.738;2023-01-01T03:52:25;14.20;52.90
53268;DHT22;39156;51.176;6.738;2023-01-01T03:55:34;14.20;53.20
53268;DHT22;39156;51.176;6.738;2023-01-01T03:58:25;14.20;52.90
53268;DHT22;39156;51.176;6.738;2023-01-01T04:01:11;14.20;53.20
53268;DHT22;39156;51.176;6.738;2023-01-01T04:03:41;14.20;53.30
53268;DHT22;39156;51.176;6.738;2023-01-01T04:06:08;14.20;53.40
53268;DHT22;39156;51.176;6.738;2023-01-01T04:08:35;14.20;53.50
53268;DHT22;39156;51.176;6.738;2023-01-01T04:11:06;14.20;53.70
53268;DHT22;39156;51.176;6.738;2023-01-01T04:14:02;14.20;53.80
53268;DHT22;39156;51.176;6.738;2023-01-01T04:16:28;14.20;53.80
53268;DHT22;39156;51.176;6.738;2023-01-01T04:18:54;14.20;53.80
53268;DHT22;39156;51.176;6.738;2023-01-01T04:21:20;14.20;53.90
53268;DHT22;39156;51.176;6.738;2023-01-01T04:23:45;14.50;54.10
53268;DHT22;39156;51.176;6.738;2023-01-01T04:26:12;14.20;54.00
53268;DHT22;39156;51.176;6.738;2023-01-01T04:28:39;14.20;54.00
53268;DHT22;39156;51.176;6.738;2023-01-01T04:31:06;14.20;54.30
53268;DHT22;39156;51.176;6.738;2023-01-01T04:33:32;14.30;54.20
53268;DHT22;39156;51.176;6.738;2023-01-01T04:36:03;14.20;54.10
53268;DHT22;39156;51.176;6.738;2023-01-01T04:38:32;14.30;54.10
53268;DHT22;39156;51.176;6.738;2023-01-01T04:40:59;14.40;54.30
53268;DHT22;39156;51.176;6.738;2023-01-01T04:43:25;14.40;54.40
53268;DHT22;39156;51.176;6.738;2023-01-01T04:46:01;14.40;54.40
53268;DHT22;39156;51.176;6.738;2023-01-01T04:48:29;14.30;54.40
53268;DHT22;39156;51.176;6.738;2023-01-01T04:51:00;14.40;54.50
53268;DHT22;39156;51.176;6.738;2023-01-01T04:53:33;14.30;54.50
53268;DHT22;39156;51.176;6.738;2023-01-01T04:56:14;14.30;54.50
53268;DHT22;39156;51.176;6.738;2023-01-01T04:58:42;14.30;54.60
53268;DHT22;39156;51.176;6.738;2023-01-01T05:01:20;14.40;54.80
53268;DHT22;39156;51.176;6.738;2023-01-01T05:03:51;14.30;54.70
53268;DHT22;39156;51.176;6.738;2023-01-01T05:06:17;14.30;54.70
53268;DHT22;39156;51.176;6.738;2023-01-01T05:08:45;14.20;54.80
53268;DHT22;39156;51.176;6.738;2023-01-01T05:11:17;14.20;54.80
53268;DHT22;39156;51.176;6.738;2023-01-01T05:13:47;14.40;54.90
53268;DHT22;39156;51.176;6.738;2023-01-01T05:16:16;14.30;55.00
53268;DHT22;39156;51.176;6.738;2023-01-01T05:18:44;14.20;55.00
53268;DHT22;39156;51.176;6.738;2023-01-01T05:21:13;14.30;55.10
53268;DHT22;39156;51.176;6.738;2023-01-01T05:23:47;14.10;55.00
53268;DHT22;39156;51.176;6.738;2023-01-01T05:26:18;14.30;55.10
53268;DHT22;39156;51.176;6.738;2023-01-01T05:28:46;14.40;55.30
53268;DHT22;39156;51.176;6.738;2023-01-01T05:31:13;14.20;55.30
53268;DHT22;39156;51.176;6.738;2023-01-01T05:33:40;14.20;55.50
53268;DHT22;39156;51.176;6.738;2023-01-01T05:36:07;14.20;55.20
53268;DHT22;39156;51.176;6.738;2023-01-01T05:38:35;14.20;55.30
53268;DHT22;39156;51.176;6.738;2023-01-01T05:41:08;14.40;55.50
53268;DHT22;39156;51.176;6.738;2023-01-01T05:43:35;14.20;55.40
53268;DHT22;39156;51.176;6.738;2023-01-01T05:46:08;14.20;55.40
53268;DHT22;39156;51.176;6.738;2023-01-01T05:48:35;14.20;55.50
53268;DHT22;39156;51.176;6.738;2023-01-01T05:51:07;14.10;55.50
53268;DHT22;39156;51.176;6.738;2023-01-01T05:53:34;14.20;55.60
53268;DHT22;39156;51.176;6.738;2023-01-01T05:56:01;14.10;55.60
53268;DHT22;39156;51.176;6.738;2023-01-01T05:58:29;14.20;55.70
53268;DHT22;39156;51.176;6.738;2023-01-01T06:00:55;14.20;55.80
53268;DHT22;39156;51.176;6.738;2023-01-01T06:03:21;14.20;55.90
53268;DHT22;39156;51.176;6.738;2023-01-01T06:05:47;14.10;55.80
53268;DHT22;39156;51.176;6.738;2023-01-01T06:08:13;14.10;55.90
53268;DHT22;39156;51.176;6.738;2023-01-01T06:10:39;14.30;56.20
53268;DHT22;39156;51.176;6.738;2023-01-01T06:13:05;14.10;56.40
53268;DHT22;39156;51.176;6.738;2023-01-01T06:15:31;14.20;56.80
53268;DHT22;39156;51.176;6.738;2023-01-01T06:17:57;14.20;56.70
53268;DHT22;39156;51.176;6.738;2023-01-01T06:20:23;14.20;56.80
53268;DHT22;39156;51.176;6.738;2023-01-01T06:22:49;14.10;56.80
53268;DHT22;39156;51.176;6.738;2023-01-01T06:25:15;14.10;56.60
53268;DHT22;39156;51.176;6.738;2023-01-01T06:27:40;14.10;56.70
53268;DHT22;39156;51.176;6.738;2023-01-01T06:30:07;14.20;56.80
53268;DHT22;39156;51.176;6.738;2023-01-01T06:32:33;14.10;56.70
53268;DHT22;39156;51.176;6.738;2023-01-01T06:34:59;14.10;56.80
53268;DHT22;39156;51.176;6.738;2023-01-01T06:37:26;14.10;56.80
53268;DHT22;39156;51.176;6.738;2023-01-01T06:39:52;14.30;56.90
53268;DHT22;39156;51.176;6.738;2023-01-01T06:42:18;14.40;57.00
53268;DHT22;39156;51.176;6.738;2023-01-01T06:44:44;14.10;56.80
53268;DHT22;39156;51.176;6.738;2023-01-01T06:47:09;14.20;56.90
53268;DHT22;39156;51.176;6.738;2023-01-01T06:49:35;14.20;56.90
53268;DHT22;39156;51.176;6.738;2023-01-01T06:52:00;14.20;56.80
53268;DHT22;39156;51.176;6.738;2023-01-01T06:54:26;14.20;56.80
53268;DHT22;39156;51.176;6.738;2023-01-01T06:56:52;14.20;56.90
53268;DHT22;39156;51.176;6.738;2023-01-01T06:59:17;14.20;56.90
53268;DHT22;39156;51.176;6.738;2023-01-01T07:01:43;14.10;56.90
53268;DHT22;39156;51.176;6.738;2023-01-01T07:04:11;14.20;57.00
53268;DHT22;39156;51.176;6.738;2023-01-01T07:06:40;14.30;57.10
53268;DHT22;39156;51.176;6.738;2023-01-01T07:09:07;14.40;57.20
53268;DHT22;39156;51.176;6.738;2023-01-01T07:11:34;14.30;57.20
53268;DHT22;39156;51.176;6.738;2023-01-01T07:14:00;14.20;57.10
53268;DHT22;39156;51.176;6.738;2023-01-01T07:16:27;14.20;57.30
53268;DHT22;39156;51.176;6.738;2023-01-01T07:18:53;14.10;57.30
53268;DHT22;39156;51.176;6.738;2023-01-01T07:24:00;14.20;57.70
53268;DHT22;39156;51.176;6.738;2023-01-01T07:26:28;14.30;57.80
53268;DHT22;39156;51.176;6.738;2023-01-01T07:28:55;14.30;57.90
53268;DHT22;39156;51.176;6.738;2023-01-01T07:31:21;14.30;58.10
53268;DHT22;39156;51.176;6.738;2023-01-01T07:33:47;14.20;58.20
53268;DHT22;39156;51.176;6.738;2023-01-01T07:36:13;14.10;58.30
53268;DHT22;39156;51.176;6.738;2023-01-01T07:38:39;14.20;58.40
53268;DHT22;39156;51.176;6.738;2023-01-01T07:41:04;14.20;58.90
53268;DHT22;39156;51.176;6.738;2023-01-01T07:43:30;14.20;59.10
53268;DHT22;39156;51.176;6.738;2023-01-01T07:45:57;14.20;59.10
53268;DHT22;39156;51.176;6.738;2023-01-01T07:48:23;14.20;59.30
53268;DHT22;39156;51.176;6.738;2023-01-01T07:50:50;14.20;59.50
53268;DHT22;39156;51.176;6.738;2023-01-01T07:53:16;14.20;59.60
53268;DHT22;39156;51.176;6.738;2023-01-01T07:55:41;14.10;59.70
53268;DHT22;39156;51.176;6.738;2023-01-01T07:58:08;14.10;59.80
53268;DHT22;39156;51.176;6.738;2023-01-01T08:00:35;14.20;60.00
53268;DHT22;39156;51.176;6.738;2023-01-01T08:03:01;14.10;60.10
53268;DHT22;39156;51.176;6.738;2023-01-01T08:05:27;14.00;60.20
53268;DHT22;39156;51.176;6.738;2023-01-01T08:07:53;14.00;60.10
53268;DHT22;39156;51.176;6.738;2023-01-01T08:10:19;14.00;60.20
53268;DHT22;39156;51.176;6.738;2023-01-01T08:12:46;14.00;60.40
53268;DHT22;39156;51.176;6.738;2023-01-01T08:15:12;13.90;60.30
53268;DHT22;39156;51.176;6.738;2023-01-01T08:17:38;14.00;60.50
53268;DHT22;39156;51.176;6.738;2023-01-01T08:20:05;14.30;60.70
53268;DHT22;39156;51.176;6.738;2023-01-01T08:22:31;13.90;60.50
53268;DHT22;39156;51.176;6.738;2023-01-01T08:24:57;13.90;60.50
53268;DHT22;39156;51.176;6.738;2023-01-01T08:27:23;13.90;60.60
53268;DHT22;39156;51.176;6.738;2023-01-01T08:29:49;13.90;60.80
53268;DHT22;39156;51.176;6.738;2023-01-01T08:32:15;14.10;60.90
53268;DHT22;39156;51.176;6.738;2023-01-01T08:34:40;13.80;60.80
53268;DHT22;39156;51.176;6.738;2023-01-01T08:37:10;13.90;60.90
53268;DHT22;39156;51.176;6.738;2023-01-01T08:39:37;13.80;60.90
53268;DHT22;39156;51.176;6.738;2023-01-01T08:42:03;14.00;61.00
53268;DHT22;39156;51.176;6.738;2023-01-01T08:44:29;13.80;61.00
53268;DHT22;39156;51.176;6.738;2023-01-01T08:46:54;13.80;61.00
53268;DHT22;39156;51.176;6.738;2023-01-01T08:49:20;13.80;61.10
53268;DHT22;39156;51.176;6.738;2023-01-01T08:51:46;13.80;61.10
53268;DHT22;39156;51.176;6.738;2023-01-01T08:54:11;13.90;61.20
53268;DHT22;39156;51.176;6.738;2023-01-01T08:56:37;13.80;61.20
53268;DHT22;39156;51.176;6.738;2023-01-01T08:59:03;13.80;61.20
53268;DHT22;39156;51.176;6.738;2023-01-01T09:01:29;13.80;61.30
53268;DHT22;39156;51.176;6.738;2023-01-01T09:03:55;13.80;61.30
53268;DHT22;39156;51.176;6.738;2023-01-01T09:06:20;13.80;61.40
53268;DHT22;39156;51.176;6.738;2023-01-01T09:08:47;13.70;61.50
53268;DHT22;39156;51.176;6.738;2023-01-01T09:11:27;13.80;61.60
53268;DHT22;39156;51.176;6.738;2023-01-01T09:13:53;13.70;61.60
53268;DHT22;39156;51.176;6.738;2023-01-01T09:16:20;13.80;61.80
53268;DHT22;39156;51.176;6.738;2023-01-01T09:18:46;13.80;61.80
53268;DHT22;39156;51.176;6.738;2023-01-01T09:21:12;13.80;61.80
53268;DHT22;39156;51.176;6.738;2023-01-01T09:23:38;13.80;61.80
53268;DHT22;39156;51.176;6.738;2023-01-01T09:26:05;13.80;61.90
53268;DHT22;39156;51.176;6.738;2023-01-01T09:28:32;13.80;62.30
53268;DHT22;39156;51.176;6.738;2023-01-01T09:31:08;13.80;62.00
53268;DHT22;39156;51.176;6.738;2023-01-01T09:33:33;13.80;62.00
53268;DHT22;39156;51.176;6.738;2023-01-01T09:38:48;13.80;62.30
53268;DHT22;39156;51.176;6.738;2023-01-01T09:47:41;13.90;62.50
53268;DHT22;39156;51.176;6.738;2023-01-01T09:50:40;13.90;62.40
53268;DHT22;39156;51.176;6.738;2023-01-01T09:53:34;13.90;62.40
53268;DHT22;39156;51.176;6.738;2023-01-01T09:56:08;14.30;62.50
53268;DHT22;39156;51.176;6.738;2023-01-01T09:58:42;13.90;62.20
53268;DHT22;39156;51.176;6.738;2023-01-01T10:01:14;14.00;62.20
53268;DHT22;39156;51.176;6.738;2023-01-01T10:03:58;14.00;62.30
53268;DHT22;39156;51.176;6.738;2023-01-01T10:06:32;14.10;62.20
53268;DHT22;39156;51.176;6.738;2023-01-01T10:09:22;14.00;62.10
53268;DHT22;39156;51.176;6.738;2023-01-01T10:14:53;14.10;62.40
53268;DHT22;39156;51.176;6.738;2023-01-01T10:17:38;14.00;62.20
53268;DHT22;39156;51.176;6.738;2023-01-01T10:20:21;14.00;62.30
53268;DHT22;39156;51.176;6.738;2023-01-01T10:23:02;14.00;62.30
53268;DHT22;39156;51.176;6.738;2023-01-01T10:25:38;14.00;62.30
53268;DHT22;39156;51.176;6.738;2023-01-01T10:28:32;14.10;62.40
53268;DHT22;39156;51.176;6.738;2023-01-01T10:31:15;14.00;62.30
53268;DHT22;39156;51.176;6.738;2023-01-01T10:33:44;14.10;62.20
53268;DHT22;39156;51.176;6.738;2023-01-01T10:36:14;14.50;62.40
53268;DHT22;39156;51.176;6.738;2023-01-01T10:38:41;14.10;62.20
53268;DHT22;39156;51.176;6.738;2023-01-01T10:41:12;14.10;62.20
53268;DHT22;39156;51.176;6.738;2023-01-01T10:43:41;14.10;62.30
53268;DHT22;39156;51.176;6.738;2023-01-01T10:46:34;14.10;62.20
53268;DHT22;39156;51.176;6.738;2023-01-01T10:49:04;14.10;62.20
53268;DHT22;39156;51.176;6.738;2023-01-01T10:51:44;14.00;62.00
53268;DHT22;39156;51.176;6.738;2023-01-01T10:56:53;14.10;62.30
53268;DHT22;39156;51.176;6.738;2023-01-01T11:02:25;14.10;62.20
53268;DHT22;39156;51.176;6.738;2023-01-01T11:07:43;14.10;62.40
53268;DHT22;39156;51.176;6.738;2023-01-01T11:10:38;14.10;62.10
53268;DHT22;39156;51.176;6.738;2023-01-01T11:13:17;14.10;62.40
53268;DHT22;39156;51.176;6.738;2023-01-01T11:15:43;14.10;62.30
53268;DHT22;39156;51.176;6.738;2023-01-01T11:18:14;14.10;62.20
53268;DHT22;39156;51.176;6.738;2023-01-01T11:20:55;14.10;62.40
53268;DHT22;39156;51.176;6.738;2023-01-01T11:23:33;14.10;62.30
53268;DHT22;39156;51.176;6.738;2023-01-01T11:28:32;14.20;62.30
53268;DHT22;39156;51.176;6.738;2023-01-01T11:31:18;14.10;62.30
53268;DHT22;39156;51.176;6.738;2023-01-01T11:33:48;14.10;62.60
53268;DHT22;39156;51.176;6.738;2023-01-01T11:36:28;14.10;62.40
53268;DHT22;39156;51.176;6.738;2023-01-01T11:39:18;14.10;62.60
53268;DHT22;39156;51.176;6.738;2023-01-01T11:41:49;14.10;62.70
53268;DHT22;39156;51.176;6.738;2023-01-01T11:44:42;14.10;62.40
53268;DHT22;39156;51.176;6.738;2023-01-01T11:47:32;14.10;62.60
53268;DHT22;39156;51.176;6.738;2023-01-01T11:52:46;14.10;62.20
53268;DHT22;39156;51.176;6.738;2023-01-01T11:55:44;14.10;62.20
53268;DHT22;39156;51.176;6.738;2023-01-01T12:01:18;14.10;62.10
53268;DHT22;39156;51.176;6.738;2023-01-01T12:03:58;14.20;62.10
53268;DHT22;39156;51.176;6.738;2023-01-01T12:06:52;14.10;61.80
53268;DHT22;39156;51.176;6.738;2023-01-01T12:09:47;14.20;61.90
53268;DHT22;39156;51.176;6.738;2023-01-01T12:12:27;14.20;61.80
53268;DHT22;39156;51.176;6.738;2023-01-01T12:15:24;14.20;61.50
53268;DHT22;39156;51.176;6.738;2023-01-01T12:20:58;14.20;61.50
53268;DHT22;39156;51.176;6.738;2023-01-01T12:23:26;14.20;61.40
53268;DHT22;39156;51.176;6.738;2023-01-01T12:26:14;14.20;61.30
53268;DHT22;39156;51.176;6.738;2023-01-01T12:38:35;14.20;61.40
53268;DHT22;39156;51.176;6.738;2023-01-01T12:41:11;14.20;61.30
53268;DHT22;39156;51.176;6.738;2023-01-01T12:43:49;14.20;61.00
53268;DHT22;39156;51.176;6.738;2023-01-01T12:46:48;14.20;61.10
53268;DHT22;39156;51.176;6.738;2023-01-01T12:49:41;14.20;61.00
53268;DHT22;39156;51.176;6.738;2023-01-01T12:55:54;14.20;60.90
53268;DHT22;39156;51.176;6.738;2023-01-01T12:58:41;14.20;60.80
53268;DHT22;39156;51.176;6.738;2023-01-01T13:01:13;14.20;60.90
53268;DHT22;39156;51.176;6.738;2023-01-01T13:03:55;14.20;60.80
53268;DHT22;39156;51.176;6.738;2023-01-01T13:06:29;14.20;60.80
53268;DHT22;39156;51.176;6.738;2023-01-01T13:09:04;14.20;60.90
53268;DHT22;39156;51.176;6.738;2023-01-01T13:11:33;14.10;60.90
53268;DHT22;39156;51.176;6.738;2023-01-01T13:13:59;14.20;60.90
53268;DHT22;39156;51.176;6.738;2023-01-01T13:16:34;14.20;61.00
53268;DHT22;39156;51.176;6.738;2023-01-01T13:19:04;14.10;60.90
53268;DHT22;39156;51.176;6.738;2023-01-01T13:21:30;14.10;60.70
53268;DHT22;39156;51.176;6.738;2023-01-01T13:24:03;14.10;60.70
53268;DHT22;39156;51.176;6.738;2023-01-01T13:26:36;14.10;60.90
53268;DHT22;39156;51.176;6.738;2023-01-01T13:34:32;14.10;61.00
53268;DHT22;39156;51.176;6.738;2023-01-01T13:39:59;14.10;60.80
53268;DHT22;39156;51.176;6.738;2023-01-01T13:45:37;14.10;60.70
53268;DHT22;39156;51.176;6.738;2023-01-01T13:48:52;14.00;60.70
53268;DHT22;39156;51.176;6.738;2023-01-01T14:03:27;14.00;60.40
53268;DHT22;39156;51.176;6.738;2023-01-01T14:06:03;14.00;60.50
53268;DHT22;39156;51.176;6.738;2023-01-01T14:08:34;14.00;60.50
53268;DHT22;39156;51.176;6.738;2023-01-01T14:11:14;14.00;60.40
53268;DHT22;39156;51.176;6.738;2023-01-01T14:13:43;14.00;60.40
53268;DHT22;39156;51.176;6.738;2023-01-01T14:16:10;14.00;60.20
53268;DHT22;39156;51.176;6.738;2023-01-01T14:18:49;14.00;60.40
53268;DHT22;39156;51.176;6.738;2023-01-01T14:21:19;14.00;60.20
53268;DHT22;39156;51.176;6.738;2023-01-01T14:23:50;14.00;60.10
53268;DHT22;39156;51.176;6.738;2023-01-01T14:26:24;13.90;60.20
53268;DHT22;39156;51.176;6.738;2023-01-01T14:28:58;14.00;60.50
53268;DHT22;39156;51.176;6.738;2023-01-01T14:31:29;14.00;60.30
53268;DHT22;39156;51.176;6.738;2023-01-01T14:33:56;13.90;60.20
53268;DHT22;39156;51.176;6.738;2023-01-01T14:36:24;14.00;60.40
53268;DHT22;39156;51.176;6.738;2023-01-01T14:38:56;13.90;60.20
53268;DHT22;39156;51.176;6.738;2023-01-01T14:41:39;13.90;60.40
53268;DHT22;39156;51.176;6.738;2023-01-01T14:44:11;13.90;60.20
53268;DHT22;39156;51.176;6.738;2023-01-01T14:46:49;13.90;60.40
53268;DHT22;39156;51.176;6.738;2023-01-01T14:49:28;13.90;60.50
53268;DHT22;39156;51.176;6.738;2023-01-01T14:52:05;13.90;60.70
53268;DHT22;39156;51.176;6.738;2023-01-01T14:54:42;13.80;60.80
53268;DHT22;39156;51.176;6.738;2023-01-01T14:57:23;13.80;60.90
53268;DHT22;39156;51.176;6.738;2023-01-01T14:59:56;13.80;61.10
53268;DHT22;39156;51.176;6.738;2023-01-01T15:02:36;13.80;61.10
53268;DHT22;39156;51.176;6.738;2023-01-01T15:05:30;13.80;61.20
53268;DHT22;39156;51.176;6.738;2023-01-01T15:07:58;13.70;61.30
53268;DHT22;39156;51.176;6.738;2023-01-01T15:10:27;13.70;61.10
53268;DHT22;39156;51.176;6.738;2023-01-01T15:12:55;13.70;61.20
53268;DHT22;39156;51.176;6.738;2023-01-01T15:15:44;13.70;61.40
53268;DHT22;39156;51.176;6.738;2023-01-01T15:18:39;13.60;61.50
53268;DHT22;39156;51.176;6.738;2023-01-01T15:24:04;13.60;61.90
53268;DHT22;39156;51.176;6.738;2023-01-01T15:26:40;13.60;62.60
53268;DHT22;39156;51.176;6.738;2023-01-01T15:29:10;13.50;62.40
53268;DHT22;39156;51.176;6.738;2023-01-01T15:31:45;13.50;62.50
53268;DHT22;39156;51.176;6.738;2023-01-01T15:34:25;13.40;62.60
53268;DHT22;39156;51.176;6.738;2023-01-01T15:36:56;13.50;63.30
53268;DHT22;39156;51.176;6.738;2023-01-01T15:39:31;13.40;63.20
53268;DHT22;39156;51.176;6.738;2023-01-01T15:41:57;13.40;63.50
53268;DHT22;39156;51.176;6.738;2023-01-01T15:44:31;13.30;63.60
53268;DHT22;39156;51.176;6.738;2023-01-01T15:47:13;13.30;64.20
53268;DHT22;39156;51.176;6.738;2023-01-01T15:49:39;13.30;64.30
53268;DHT22;39156;51.176;6.738;2023-01-01T15:52:20;13.20;64.20
53268;DHT22;39156;51.176;6.738;2023-01-01T15:54:49;13.20;64.80
53268;DHT22;39156;51.176;6.738;2023-01-01T15:57:21;13.20;64.60
53268;DHT22;39156;51.176;6.738;2023-01-01T15:59:49;13.20;65.00
53268;DHT22;39156;51.176;6.738;2023-01-01T16:02:33;13.10;64.90
53268;DHT22;39156;51.176;6.738;2023-01-01T16:05:01;13.10;65.20
53268;DHT22;39156;51.176;6.738;2023-01-01T16:07:27;13.10;65.10
53268;DHT22;39156;51.176;6.738;2023-01-01T16:09:53;13.10;65.40
53268;DHT22;39156;51.176;6.738;2023-01-01T16:12:20;13.10;65.70
53268;DHT22;39156;51.176;6.738;2023-01-01T16:14:47;13.10;66.00
53268;DHT22;39156;51.176;6.738;2023-01-01T16:17:17;13.00;65.80
53268;DHT22;39156;51.176;6.738;2023-01-01T16:19:44;13.10;66.30
53268;DHT22;39156;51.176;6.738;2023-01-01T16:22:13;13.00;66.30
53268;DHT22;39156;51.176;6.738;2023-01-01T16:24:41;13.00;66.60
53268;DHT22;39156;51.176;6.738;2023-01-01T16:27:07;12.90;66.80
53268;DHT22;39156;51.176;6.738;2023-01-01T16:29:34;12.90;66.90
53268;DHT22;39156;51.176;6.738;2023-01-01T16:32:00;12.90;67.20
53268;DHT22;39156;51.176;6.738;2023-01-01T16:34:26;12.80;67.20
53268;DHT22;39156;51.176;6.738;2023-01-01T16:36:52;12.90;67.10
53268;DHT22;39156;51.176;6.738;2023-01-01T16:39:18;12.80;67.30
53268;DHT22;39156;51.176;6.738;2023-01-01T16:41:44;12.80;67.40
53268;DHT22;39156;51.176;6.738;2023-01-01T16:44:15;12.80;67.80
53268;DHT22;39156;51.176;6.738;2023-01-01T16:46:42;12.80;67.90
53268;DHT22;39156;51.176;6.738;2023-01-01T16:49:11;12.70;68.10
53268;DHT22;39156;51.176;6.738;2023-01-01T16:51:37;12.70;68.30
53268;DHT22;39156;51.176;6.738;2023-01-01T16:54:02;12.80;68.70
53268;DHT22;39156;51.176;6.738;2023-01-01T16:56:28;12.70;68.80
53268;DHT22;39156;51.176;6.738;2023-01-01T16:58:54;12.70;69.00
53268;DHT22;39156;51.176;6.738;2023-01-01T17:01:21;12.70;69.30
53268;DHT22;39156;51.176;6.738;2023-01-01T17:03:47;12.70;69.50
53268;DHT22;39156;51.176;6.738;2023-01-01T17:06:13;12.70;69.80
53268;DHT22;39156;51.176;6.738;2023-01-01T17:08:39;12.60;69.90
53268;DHT22;39156;51.176;6.738;2023-01-01T17:13:42;12.60;70.30
53268;DHT22;39156;51.176;6.738;2023-01-01T17:16:09;12.50;70.50
53268;DHT22;39156;51.176;6.738;2023-01-01T17:18:36;12.50;71.30
53268;DHT22;39156;51.176;6.738;2023-01-01T17:21:06;12.50;70.80
53268;DHT22;39156;51.176;6.738;2023-01-01T17:23:38;12.50;71.20
53268;DHT22;39156;51.176;6.738;2023-01-01T17:26:07;12.40;71.40
53268;DHT22;39156;51.176;6.738;2023-01-01T17:28:34;12.30;71.20
53268;DHT22;39156;51.176;6.738;2023-01-01T17:31:05;12.30;71.60
53268;DHT22;39156;51.176;6.738;2023-01-01T17:33:32;12.30;72.20
53268;DHT22;39156;51.176;6.738;2023-01-01T17:35:58;12.20;72.00
53268;DHT22;39156;51.176;6.738;2023-01-01T17:38:25;12.20;72.20
53268;DHT22;39156;51.176;6.738;2023-01-01T17:40:50;12.20;72.30
53268;DHT22;39156;51.176;6.738;2023-01-01T17:43:16;12.20;72.50
53268;DHT22;39156;51.176;6.738;2023-01-01T17:45:42;12.20;72.70
53268;DHT22;39156;51.176;6.738;2023-01-01T17:48:07;12.10;72.90
53268;DHT22;39156;51.176;6.738;2023-01-01T17:50:33;12.20;73.00
53268;DHT22;39156;51.176;6.738;2023-01-01T17:52:59;12.10;73.20